^^
Grace C. Lehan Memorial Weather Station Historical Data
Daily Summary for August 03, 2022 Units:  Both    English   Metric
Daily Weekly Monthly Yearly
  High: Low: Average:
Temperature: 91 °F /  32.8 °C 67.7 °F /  19.8 °C 79.1 °F /  26.2 °C
Dew Point: 69.8 °F /  21 °C 63.4 °F /  17.4 °C 66 °F /  18.9 °C
Humidity: 87% 43.2% 66%
Wind Speed: 2.8mph /  4.5km/h - 0.2mph /  0.3km/h
Wind Gust: 10mph /  16.1km/h - -
Wind- - WSW
Pressure: 29.99 in /  1015.5 hPa 29.85 in /  1010.7 hPa -
Precipitation: 0.00 in /  0 mm    
 
 
Tabular Data for August 03, 2022
Time Temperature Dew Point Pressure Wind Wind Speed Wind Gust Humidity Rainfall Rate (Hourly) solar
00:00 76.8 °F /  24.9 °C 65.4 °F /  18.6 °C 29.85in /  1010.7hPa Calm   4mph /  6.4km/h 68% 0.00in /  0mm 0 W/m2
00:09 76.5 °F /  24.7 °C 65.6 °F /  18.7 °C 29.85in /  1010.7hPa Calm     69% 0.00in /  0mm 0 W/m2
00:14 76.3 °F /  24.6 °C 65.4 °F /  18.6 °C 29.86in /  1011.1hPa WNW 0.5mph /  0.8km/h 4mph /  6.4km/h 69% 0.00in /  0mm 0 W/m2
00:19 76 °F /  24.4 °C 65.2 °F /  18.4 °C 29.86in /  1011.1hPa NW 0.5mph /  0.8km/h 4mph /  6.4km/h 69.2% 0.00in /  0mm 0 W/m2
00:24 75.8 °F /  24.3 °C 65 °F /  18.3 °C 29.86in /  1011.1hPa NW 0.4mph /  0.6km/h 5mph /  8km/h 69.2% 0.00in /  0mm 0 W/m2
00:29 75.6 °F /  24.2 °C 64.9 °F /  18.3 °C 29.86in /  1011.1hPa WNW 1.1mph /  1.8km/h 7mph /  11.3km/h 69.3% 0.00in /  0mm 0 W/m2
00:34 75.4 °F /  24.1 °C 64.8 °F /  18.2 °C 29.86in /  1011.1hPa WNW 0.2mph /  0.3km/h 7mph /  11.3km/h 69.5% 0.00in /  0mm 0 W/m2
00:39 75.3 °F /  24.1 °C 64.9 °F /  18.3 °C 29.86in /  1011.1hPa WNW 0.3mph /  0.5km/h 4mph /  6.4km/h 70% 0.00in /  0mm 0 W/m2
00:44 75.2 °F /  24 °C 64.8 °F /  18.2 °C 29.86in /  1011.1hPa WNW 0.1mph /  0.2km/h 4mph /  6.4km/h 70% 0.00in /  0mm 0 W/m2
00:49 75.1 °F /  23.9 °C 64.6 °F /  18.1 °C 29.86in /  1011.1hPa WNW 0.2mph /  0.3km/h 4mph /  6.4km/h 70% 0.00in /  0mm 0 W/m2
00:54 74.9 °F /  23.8 °C 64.5 °F /  18.1 °C 29.86in /  1011.1hPa NNW 1mph /  1.6km/h 6mph /  9.7km/h 70% 0.00in /  0mm 0 W/m2
00:59 74.8 °F /  23.8 °C 64.6 °F /  18.1 °C 29.86in /  1011.1hPa NNW 0.8mph /  1.3km/h 6mph /  9.7km/h 70.6% 0.00in /  0mm 0 W/m2
01:04 74.6 °F /  23.7 °C 64.6 °F /  18.1 °C 29.86in /  1011.1hPa Calm   6mph /  9.7km/h 71% 0.00in /  0mm 0 W/m2
01:09 74.5 °F /  23.6 °C 64.5 °F /  18.1 °C 29.86in /  1011.1hPa Calm   1mph /  1.6km/h 71% 0.00in /  0mm 0 W/m2
01:14 74.4 °F /  23.6 °C 64.5 °F /  18.1 °C 29.86in /  1011.1hPa NNW 0.5mph /  0.8km/h 3mph /  4.8km/h 71.2% 0.00in /  0mm 0 W/m2
01:19 74.3 °F /  23.5 °C 64.7 °F /  18.2 °C 29.86in /  1011.1hPa NW 0.3mph /  0.5km/h 5mph /  8km/h 72% 0.00in /  0mm 0 W/m2
01:24 74.1 °F /  23.4 °C 64.5 °F /  18.1 °C 29.86in /  1011.1hPa Calm   5mph /  8km/h 72% 0.00in /  0mm 0 W/m2
01:29 74 °F /  23.3 °C 64.4 °F /  18 °C 29.86in /  1011.1hPa Calm   5mph /  8km/h 72% 0.00in /  0mm 0 W/m2
01:34 73.9 °F /  23.3 °C 64.3 °F /  17.9 °C 29.86in /  1011.1hPa Calm   5mph /  8km/h 72% 0.00in /  0mm 0 W/m2
01:39 73.7 °F /  23.2 °C 64.5 °F /  18.1 °C 29.86in /  1011.1hPa Calm     72.9% 0.00in /  0mm 0 W/m2
01:44 73.6 °F /  23.1 °C 64.4 °F /  18 °C 29.86in /  1011.1hPa Calm     73% 0.00in /  0mm 0 W/m2
01:49 73.4 °F /  23 °C 64.4 °F /  18 °C 29.86in /  1011.1hPa Calm     73.4% 0.00in /  0mm 0 W/m2
01:54 73.3 °F /  22.9 °C 64.5 °F /  18.1 °C 29.86in /  1011.1hPa Calm     74% 0.00in /  0mm 0 W/m2
01:59 73.1 °F /  22.8 °C 64.4 °F /  18 °C 29.86in /  1011.1hPa Calm     74% 0.00in /  0mm 0 W/m2
02:04 73 °F /  22.8 °C 64.2 °F /  17.9 °C 29.86in /  1011.1hPa Calm     74% 0.00in /  0mm 0 W/m2
02:09 72.8 °F /  22.7 °C 64.3 °F /  17.9 °C 29.86in /  1011.1hPa Calm   1mph /  1.6km/h 74.6% 0.00in /  0mm 0 W/m2
02:14 72.7 °F /  22.6 °C 64.3 °F /  17.9 °C 29.86in /  1011.1hPa Calm   1mph /  1.6km/h 75% 0.00in /  0mm 0 W/m2
02:19 72.6 °F /  22.6 °C 64.3 °F /  17.9 °C 29.86in /  1011.1hPa Calm   1mph /  1.6km/h 75.2% 0.00in /  0mm 0 W/m2
02:24 72.4 °F /  22.4 °C 64.5 °F /  18.1 °C 29.86in /  1011.1hPa Calm   1mph /  1.6km/h 76% 0.00in /  0mm 0 W/m2
02:29 72.3 °F /  22.4 °C 64.3 °F /  17.9 °C 29.86in /  1011.1hPa Calm   1mph /  1.6km/h 76% 0.00in /  0mm 0 W/m2
02:34 72.1 °F /  22.3 °C 64.1 °F /  17.8 °C 29.86in /  1011.1hPa Calm   1mph /  1.6km/h 76% 0.00in /  0mm 0 W/m2
02:39 71.9 °F /  22.2 °C 64 °F /  17.8 °C 29.86in /  1011.1hPa Calm     76.2% 0.00in /  0mm 0 W/m2
02:44 71.8 °F /  22.1 °C 64.2 °F /  17.9 °C 29.87in /  1011.4hPa Calm     77% 0.00in /  0mm 0 W/m2
02:49 71.6 °F /  22 °C 64.1 °F /  17.8 °C 29.87in /  1011.4hPa Calm     77% 0.00in /  0mm 0 W/m2
02:54 71.5 °F /  21.9 °C 63.9 °F /  17.7 °C 29.87in /  1011.4hPa Calm     77% 0.00in /  0mm 0 W/m2
02:59 71.3 °F /  21.8 °C 63.8 °F /  17.7 °C 29.87in /  1011.4hPa Calm     77.2% 0.00in /  0mm 0 W/m2
03:04 71.2 °F /  21.8 °C 64 °F /  17.8 °C 29.87in /  1011.4hPa Calm     78% 0.00in /  0mm 0 W/m2
03:09 71.1 °F /  21.7 °C 64 °F /  17.8 °C 29.87in /  1011.4hPa Calm     78.3% 0.00in /  0mm 0 W/m2
03:14 71 °F /  21.7 °C 64.2 °F /  17.9 °C 29.87in /  1011.4hPa Calm     79% 0.00in /  0mm 0 W/m2
03:19 70.8 °F /  21.6 °C 64 °F /  17.8 °C 29.87in /  1011.4hPa Calm     79% 0.00in /  0mm 0 W/m2
03:24 70.7 °F /  21.5 °C 64 °F /  17.8 °C 29.87in /  1011.4hPa Calm     79.5% 0.00in /  0mm 0 W/m2
03:29 70.5 °F /  21.4 °C 64.1 °F /  17.8 °C 29.88in /  1011.7hPa Calm     80% 0.00in /  0mm 0 W/m2
03:34 70.4 °F /  21.3 °C 63.9 °F /  17.7 °C 29.88in /  1011.7hPa Calm     80% 0.00in /  0mm 0 W/m2
03:39 70.3 °F /  21.3 °C 63.9 °F /  17.7 °C 29.88in /  1011.7hPa Calm     80.2% 0.00in /  0mm 0 W/m2
03:44 70.1 °F /  21.2 °C 64 °F /  17.8 °C 29.88in /  1011.7hPa Calm     81% 0.00in /  0mm 0 W/m2
03:49 70 °F /  21.1 °C 63.9 °F /  17.7 °C 29.88in /  1011.7hPa Calm     81% 0.00in /  0mm 0 W/m2
03:54 69.8 °F /  21 °C 64.1 °F /  17.8 °C 29.88in /  1011.7hPa Calm     81.9% 0.00in /  0mm 0 W/m2
03:59 69.7 °F /  20.9 °C 64 °F /  17.8 °C 29.88in /  1011.7hPa Calm     82% 0.00in /  0mm 0 W/m2
04:00 69.6 °F /  20.9 °C 63.9 °F /  17.7 °C 29.88in /  1011.7hPa Calm     82% 0.00in /  0mm 0 W/m2
04:09 69.3 °F /  20.7 °C 64 °F /  17.8 °C 29.89in /  1012.1hPa Calm     83% 0.00in /  0mm 0 W/m2
04:14 69.2 °F /  20.7 °C 63.8 °F /  17.7 °C 29.90in /  1012.4hPa Calm     83% 0.00in /  0mm 0 W/m2
04:19 69.1 °F /  20.6 °C 63.9 °F /  17.7 °C 29.90in /  1012.4hPa Calm     83.4% 0.00in /  0mm 0 W/m2
04:24 69 °F /  20.6 °C 64 °F /  17.8 °C 29.90in /  1012.4hPa Calm     84% 0.00in /  0mm 0 W/m2
04:29 68.9 °F /  20.5 °C 63.8 °F /  17.7 °C 29.90in /  1012.4hPa Calm     84% 0.00in /  0mm 0 W/m2
04:34 68.8 °F /  20.4 °C 63.7 °F /  17.6 °C 29.91in /  1012.8hPa Calm     84% 0.00in /  0mm 0 W/m2
04:39 68.7 °F /  20.4 °C 63.7 °F /  17.6 °C 29.91in /  1012.8hPa Calm     84% 0.00in /  0mm 0 W/m2
04:44 68.7 °F /  20.4 °C 63.8 °F /  17.7 °C 29.91in /  1012.8hPa Calm     84.5% 0.00in /  0mm 0 W/m2
04:49 68.7 °F /  20.4 °C 64 °F /  17.8 °C 29.91in /  1012.8hPa Calm     85% 0.00in /  0mm 0 W/m2
04:54 68.7 °F /  20.4 °C 64 °F /  17.8 °C 29.91in /  1012.8hPa Calm     85% 0.00in /  0mm 0 W/m2
04:59 68.6 °F /  20.3 °C 64 °F /  17.8 °C 29.91in /  1012.8hPa Calm     85% 0.00in /  0mm 0 W/m2
05:04 68.6 °F /  20.3 °C 63.9 °F /  17.7 °C 29.91in /  1012.8hPa Calm     85% 0.00in /  0mm 0 W/m2
05:09 68.6 °F /  20.3 °C 63.9 °F /  17.7 °C 29.91in /  1012.8hPa Calm     85% 0.00in /  0mm 0 W/m2
05:14 68.6 °F /  20.3 °C 63.9 °F /  17.7 °C 29.91in /  1012.8hPa Calm     85% 0.00in /  0mm 0 W/m2
05:19 68.5 °F /  20.3 °C 63.8 °F /  17.7 °C 29.91in /  1012.8hPa Calm     85% 0.00in /  0mm 0 W/m2
05:24 68.5 °F /  20.3 °C 63.8 °F /  17.7 °C 29.91in /  1012.8hPa Calm     85% 0.00in /  0mm 0 W/m2
05:29 68.4 °F /  20.2 °C 63.7 °F /  17.6 °C 29.91in /  1012.8hPa Calm     85% 0.00in /  0mm 0 W/m2
05:34 68.3 °F /  20.2 °C 63.6 °F /  17.6 °C 29.92in /  1013.1hPa Calm     85% 0.00in /  0mm 0 W/m2
05:39 68.2 °F /  20.1 °C 63.5 °F /  17.5 °C 29.92in /  1013.1hPa Calm     85% 0.00in /  0mm 0 W/m2
05:44 68.1 °F /  20.1 °C 63.4 °F /  17.4 °C 29.92in /  1013.1hPa Calm     85% 0.00in /  0mm 0 W/m2
05:49 68 °F /  20 °C 63.6 °F /  17.6 °C 29.92in /  1013.1hPa Calm     85.9% 0.00in /  0mm 0 W/m2
05:54 67.9 °F /  19.9 °C 63.6 °F /  17.6 °C 29.93in /  1013.4hPa Calm     86% 0.00in /  0mm 5 W/m2
05:59 67.8 °F /  19.9 °C 63.5 °F /  17.5 °C 29.92in /  1013.1hPa Calm     86% 0.00in /  0mm 9 W/m2
06:04 67.8 °F /  19.9 °C 63.4 °F /  17.4 °C 29.93in /  1013.4hPa Calm     86% 0.00in /  0mm 11 W/m2
06:09 67.7 °F /  19.8 °C 63.5 °F /  17.5 °C 29.93in /  1013.4hPa Calm   1mph /  1.6km/h 86.4% 0.00in /  0mm 12 W/m2
06:14 67.7 °F /  19.8 °C 63.7 °F /  17.6 °C 29.93in /  1013.4hPa Calm   1mph /  1.6km/h 87% 0.00in /  0mm 16 W/m2
06:19 67.7 °F /  19.8 °C 63.7 °F /  17.6 °C 29.93in /  1013.4hPa Calm   1mph /  1.6km/h 87% 0.00in /  0mm 19 W/m2
06:24 67.8 °F /  19.9 °C 63.8 °F /  17.7 °C 29.93in /  1013.4hPa Calm   1mph /  1.6km/h 87% 0.00in /  0mm 25 W/m2
06:29 67.9 °F /  19.9 °C 63.8 °F /  17.7 °C 29.93in /  1013.4hPa Calm   1mph /  1.6km/h 87% 0.00in /  0mm 28 W/m2
06:34 67.9 °F /  19.9 °C 63.9 °F /  17.7 °C 29.92in /  1013.1hPa Calm   1mph /  1.6km/h 87% 0.00in /  0mm 32 W/m2
06:39 68 °F /  20 °C 64 °F /  17.8 °C 29.93in /  1013.4hPa Calm     87% 0.00in /  0mm 44 W/m2
06:44 68.2 °F /  20.1 °C 64.2 °F /  17.9 °C 29.93in /  1013.4hPa Calm     87% 0.00in /  0mm 54 W/m2
06:49 68.4 °F /  20.2 °C 64.4 °F /  18 °C 29.93in /  1013.4hPa Calm     87% 0.00in /  0mm 60 W/m2
06:54 68.8 °F /  20.4 °C 64.8 °F /  18.2 °C 29.93in /  1013.4hPa Calm     87% 0.00in /  0mm 63 W/m2
06:59 69.4 °F /  20.8 °C 65.3 °F /  18.5 °C 29.93in /  1013.4hPa Calm     86.7% 0.00in /  0mm 116 W/m2
07:04 70.3 °F /  21.3 °C 65.7 °F /  18.7 °C 29.93in /  1013.4hPa Calm     85.5% 0.00in /  0mm 190 W/m2
07:09 71.3 °F /  21.8 °C 66.1 °F /  18.9 °C 29.93in /  1013.4hPa Calm     83.5% 0.00in /  0mm 206 W/m2
07:14 72.3 °F /  22.4 °C 66.5 °F /  19.2 °C 29.93in /  1013.4hPa NW 0.1mph /  0.2km/h 2mph /  3.2km/h 81.9% 0.00in /  0mm 221 W/m2
07:19 73.3 °F /  22.9 °C 66.6 °F /  19.2 °C 29.93in /  1013.4hPa Calm   2mph /  3.2km/h 79.6% 0.00in /  0mm 234 W/m2
07:24 74.2 °F /  23.4 °C 66.7 °F /  19.3 °C 29.93in /  1013.4hPa Calm   2mph /  3.2km/h 77.6% 0.00in /  0mm 251 W/m2
07:29 74.9 °F /  23.8 °C 66.4 °F /  19.1 °C 29.93in /  1013.4hPa Calm   2mph /  3.2km/h 74.8% 0.00in /  0mm 271 W/m2
07:34 75.4 °F /  24.1 °C 66.6 °F /  19.2 °C 29.93in /  1013.4hPa Calm   2mph /  3.2km/h 74% 0.00in /  0mm 288 W/m2
07:39 75.9 °F /  24.4 °C 66.9 °F /  19.4 °C 29.93in /  1013.4hPa Calm     73.6% 0.00in /  0mm 306 W/m2
07:44 76.3 °F /  24.6 °C 66.9 °F /  19.4 °C 29.93in /  1013.4hPa Calm     72.7% 0.00in /  0mm 323 W/m2
07:49 76.8 °F /  24.9 °C 67 °F /  19.4 °C 29.93in /  1013.4hPa Calm     71.9% 0.00in /  0mm 339 W/m2
07:54 77.2 °F /  25.1 °C 67.2 °F /  19.6 °C 29.93in /  1013.4hPa NE 1.2mph /  1.9km/h 5mph /  8km/h 71.3% 0.00in /  0mm 353 W/m2
07:59 77.3 °F /  25.2 °C 66.4 °F /  19.1 °C 29.93in /  1013.4hPa ENE 1.2mph /  1.9km/h 6mph /  9.7km/h 69.1% 0.00in /  0mm 371 W/m2
08:09 77.1 °F /  25.1 °C 66.3 °F /  19.1 °C 29.93in /  1013.4hPa NE 0.5mph /  0.8km/h 4mph /  6.4km/h 69.4% 0.00in /  0mm 406 W/m2
08:14 77.1 °F /  25.1 °C 66.5 °F /  19.2 °C 29.93in /  1013.4hPa NNE 0.1mph /  0.2km/h 4mph /  6.4km/h 69.8% 0.00in /  0mm 422 W/m2
08:19 77.5 °F /  25.3 °C 67.1 °F /  19.5 °C 29.93in /  1013.4hPa Calm   4mph /  6.4km/h 70.5% 0.00in /  0mm 434 W/m2
08:24 78 °F /  25.6 °C 67.3 °F /  19.6 °C 29.93in /  1013.4hPa ESE 0.6mph /  1km/h 6mph /  9.7km/h 69.9% 0.00in /  0mm 452 W/m2
08:29 78.1 °F /  25.6 °C 67.1 °F /  19.5 °C 29.94in /  1013.8hPa ENE 0.5mph /  0.8km/h 6mph /  9.7km/h 69.1% 0.00in /  0mm 468 W/m2
08:34 78.3 °F /  25.7 °C 67.5 °F /  19.7 °C 29.94in /  1013.8hPa ENE 0.2mph /  0.3km/h 6mph /  9.7km/h 69.5% 0.00in /  0mm 487 W/m2
09:00 79.2 °F /  26.2 °C 68.6 °F /  20.3 °C 29.94in /  1013.8hPa ENE 1mph /  1.6km/h 6mph /  9.7km/h 70% 0.00in /  0mm 461 W/m2
09:30 82.3 °F /  27.9 °C 68.9 °F /  20.5 °C 29.94in /  1013.8hPa Calm   5mph /  8km/h 64% 0.00in /  0mm 605 W/m2
10:00 82.6 °F /  28.1 °C 68.3 °F /  20.2 °C 29.95in /  1014.1hPa ENE 1mph /  1.6km/h 6mph /  9.7km/h 62% 0.00in /  0mm 690 W/m2
10:30 84 °F /  28.9 °C 69.1 °F /  20.6 °C 29.95in /  1014.1hPa Calm   5mph /  8km/h 61% 0.00in /  0mm 764 W/m2
11:00 85.3 °F /  29.6 °C 69.8 °F /  21 °C 29.96in /  1014.4hPa ENE 1mph /  1.6km/h 6mph /  9.7km/h 60% 0.00in /  0mm 826 W/m2
11:30 86.8 °F /  30.4 °C 68.2 °F /  20.1 °C 29.96in /  1014.4hPa NNE 1mph /  1.6km/h 6mph /  9.7km/h 54% 0.00in /  0mm 882 W/m2
12:04 88.3 °F /  31.3 °C 68.7 °F /  20.4 °C 29.96in /  1014.4hPa Calm   1mph /  1.6km/h 52.4% 0.00in /  0mm 1000 W/m2
12:09 88.4 °F /  31.3 °C 69 °F /  20.6 °C 29.96in /  1014.4hPa Calm   1mph /  1.6km/h 52.8% 0.00in /  0mm 1030 W/m2
12:14 88.7 °F /  31.5 °C 69.1 °F /  20.6 °C 29.96in /  1014.4hPa Calm   1mph /  1.6km/h 52.5% 0.00in /  0mm 1035 W/m2
12:19 88.3 °F /  31.3 °C 68.4 °F /  20.2 °C 29.96in /  1014.4hPa North 0.2mph /  0.3km/h 2mph /  3.2km/h 52% 0.00in /  0mm 221 W/m2
12:24 87.9 °F /  31.1 °C 69.2 °F /  20.7 °C 29.95in /  1014.1hPa Calm   2mph /  3.2km/h 54.1% 0.00in /  0mm 1086 W/m2
12:29 87.7 °F /  30.9 °C 67.6 °F /  19.8 °C 29.96in /  1014.4hPa North 0.2mph /  0.3km/h 3mph /  4.8km/h 51.5% 0.00in /  0mm 230 W/m2
12:34 86.9 °F /  30.5 °C 67 °F /  19.4 °C 29.96in /  1014.4hPa Calm   3mph /  4.8km/h 51.8% 0.00in /  0mm 323 W/m2
12:39 86.2 °F /  30.1 °C 66.8 °F /  19.3 °C 29.96in /  1014.4hPa Calm   1mph /  1.6km/h 52.5% 0.00in /  0mm 1100 W/m2
12:44 86.3 °F /  30.2 °C 67 °F /  19.4 °C 29.95in /  1014.1hPa NNW 0.4mph /  0.6km/h 4mph /  6.4km/h 52.7% 0.00in /  0mm 1079 W/m2
12:49 86.9 °F /  30.5 °C 67.3 °F /  19.6 °C 29.95in /  1014.1hPa NW 0.5mph /  0.8km/h 4mph /  6.4km/h 52.2% 0.00in /  0mm 1002 W/m2
12:54 87.6 °F /  30.9 °C 67.8 °F /  19.9 °C 29.95in /  1014.1hPa NW 0.1mph /  0.2km/h 4mph /  6.4km/h 52% 0.00in /  0mm 995 W/m2
12:59 88.4 °F /  31.3 °C 67.6 °F /  19.8 °C 29.95in /  1014.1hPa NW 0.4mph /  0.6km/h 4mph /  6.4km/h 50.4% 0.00in /  0mm 1042 W/m2
13:04 88.7 °F /  31.5 °C 66.8 °F /  19.3 °C 29.95in /  1014.1hPa WNW 0.2mph /  0.3km/h 4mph /  6.4km/h 48.6% 0.00in /  0mm 1074 W/m2
13:09 88.8 °F /  31.6 °C 67.7 °F /  19.8 °C 29.94in /  1013.8hPa Calm   3mph /  4.8km/h 49.9% 0.00in /  0mm 1074 W/m2
13:14 89 °F /  31.7 °C 67 °F /  19.4 °C 29.94in /  1013.8hPa WNW 0.4mph /  0.6km/h 9mph /  14.5km/h 48.5% 0.00in /  0mm 1085 W/m2
13:19 89 °F /  31.7 °C 67.4 °F /  19.7 °C 29.95in /  1014.1hPa West 0.7mph /  1.1km/h 9mph /  14.5km/h 49.1% 0.00in /  0mm 1136 W/m2
13:24 89.3 °F /  31.8 °C 67.5 °F /  19.7 °C 29.94in /  1013.8hPa WSW 0.4mph /  0.6km/h 9mph /  14.5km/h 48.8% 0.00in /  0mm 1130 W/m2
13:29 89.5 °F /  31.9 °C 67.4 °F /  19.7 °C 29.94in /  1013.8hPa WSW 0.4mph /  0.6km/h 9mph /  14.5km/h 48.3% 0.00in /  0mm 1097 W/m2
13:34 89.6 °F /  32 °C 67.5 °F /  19.7 °C 29.94in /  1013.8hPa West 1mph /  1.6km/h 9mph /  14.5km/h 48.3% 0.00in /  0mm 1072 W/m2
13:39 89.8 °F /  32.1 °C 67.5 °F /  19.7 °C 29.93in /  1013.4hPa WSW 0.8mph /  1.3km/h 6mph /  9.7km/h 48% 0.00in /  0mm 1028 W/m2
13:44 90.2 °F /  32.3 °C 67.2 °F /  19.6 °C 29.94in /  1013.8hPa West 0.6mph /  1km/h 6mph /  9.7km/h 47% 0.00in /  0mm 1037 W/m2
13:49 90.4 °F /  32.4 °C 66.5 °F /  19.2 °C 29.94in /  1013.8hPa WNW 1.8mph /  2.9km/h 10mph /  16.1km/h 45.4% 0.00in /  0mm 1014 W/m2
13:54 90.6 °F /  32.6 °C 67.4 °F /  19.7 °C 29.94in /  1013.8hPa West 1mph /  1.6km/h 10mph /  16.1km/h 46.5% 0.00in /  0mm 1011 W/m2
13:59 90.7 °F /  32.6 °C 67.2 °F /  19.6 °C 29.93in /  1013.4hPa West 0.3mph /  0.5km/h 10mph /  16.1km/h 46.2% 0.00in /  0mm 1002 W/m2
14:04 90.8 °F /  32.7 °C 67.8 °F /  19.9 °C 29.93in /  1013.4hPa West 0.3mph /  0.5km/h 10mph /  16.1km/h 46.9% 0.00in /  0mm 967 W/m2
14:09 90.8 °F /  32.7 °C 66.7 °F /  19.3 °C 29.93in /  1013.4hPa WSW 0.4mph /  0.6km/h 5mph /  8km/h 45.3% 0.00in /  0mm 962 W/m2
14:14 90.5 °F /  32.5 °C 67.1 °F /  19.5 °C 29.93in /  1013.4hPa Calm   5mph /  8km/h 46.3% 0.00in /  0mm 972 W/m2
14:19 90.3 °F /  32.4 °C 66.9 °F /  19.4 °C 29.93in /  1013.4hPa WSW 1.6mph /  2.6km/h 5mph /  8km/h 46.2% 0.00in /  0mm 972 W/m2
14:24 90.4 °F /  32.4 °C 67.6 °F /  19.8 °C 29.92in /  1013.1hPa WSW 0.3mph /  0.5km/h 5mph /  8km/h 47.2% 0.00in /  0mm 970 W/m2
14:29 90.5 °F /  32.5 °C 67.3 °F /  19.6 °C 29.92in /  1013.1hPa SW 0.1mph /  0.2km/h 5mph /  8km/h 46.7% 0.00in /  0mm 953 W/m2
14:34 90.5 °F /  32.5 °C 67 °F /  19.4 °C 29.92in /  1013.1hPa WSW 1.1mph /  1.8km/h 7mph /  11.3km/h 46% 0.00in /  0mm 837 W/m2
14:39 90.7 °F /  32.6 °C 67.1 °F /  19.5 °C 29.92in /  1013.1hPa SSW 0.1mph /  0.2km/h 7mph /  11.3km/h 46% 0.00in /  0mm 619 W/m2
14:44 90.7 °F /  32.6 °C 67 °F /  19.4 °C 29.93in /  1013.4hPa SSW 0.5mph /  0.8km/h 7mph /  11.3km/h 45.8% 0.00in /  0mm 104 W/m2
14:49 90.8 °F /  32.7 °C 67.2 °F /  19.6 °C 29.93in /  1013.4hPa WSW 0.8mph /  1.3km/h 7mph /  11.3km/h 46% 0.00in /  0mm 111 W/m2
14:54 90.8 °F /  32.7 °C 66.3 °F /  19.1 °C 29.93in /  1013.4hPa NNW 0.6mph /  1km/h 7mph /  11.3km/h 44.5% 0.00in /  0mm 156 W/m2
14:59 90.6 °F /  32.6 °C 66.4 °F /  19.1 °C 29.92in /  1013.1hPa WSW 1.3mph /  2.1km/h 7mph /  11.3km/h 45% 0.00in /  0mm 100 W/m2
15:04 90.8 °F /  32.7 °C 66.7 °F /  19.3 °C 29.92in /  1013.1hPa WSW 0.7mph /  1.1km/h 7mph /  11.3km/h 45.3% 0.00in /  0mm 74 W/m2
15:09 90.9 °F /  32.7 °C 66.6 °F /  19.2 °C 29.92in /  1013.1hPa WSW 0.3mph /  0.5km/h 6mph /  9.7km/h 44.9% 0.00in /  0mm 58 W/m2
15:14 91 °F /  32.8 °C 65.5 °F /  18.6 °C 29.92in /  1013.1hPa WSW 0.3mph /  0.5km/h 6mph /  9.7km/h 43.2% 0.00in /  0mm 81 W/m2
15:19 90.8 °F /  32.7 °C 66.1 °F /  18.9 °C 29.92in /  1013.1hPa Calm   6mph /  9.7km/h 44.3% 0.00in /  0mm 236 W/m2
15:24 90.7 °F /  32.6 °C 66.3 °F /  19.1 °C 29.92in /  1013.1hPa SSW 0.6mph /  1km/h 6mph /  9.7km/h 44.7% 0.00in /  0mm 125 W/m2
15:29 90.6 °F /  32.6 °C 66.7 °F /  19.3 °C 29.92in /  1013.1hPa SW 0.6mph /  1km/h 6mph /  9.7km/h 45.5% 0.00in /  0mm 54 W/m2
15:34 90.5 °F /  32.5 °C 66.4 °F /  19.1 °C 29.92in /  1013.1hPa SW 0.6mph /  1km/h 7mph /  11.3km/h 45.2% 0.00in /  0mm 60 W/m2
15:39 90.4 °F /  32.4 °C 66.1 °F /  18.9 °C 29.92in /  1013.1hPa SW 0.5mph /  0.8km/h 7mph /  11.3km/h 44.8% 0.00in /  0mm 60 W/m2
15:44 90.3 °F /  32.4 °C 67.3 °F /  19.6 °C 29.91in /  1012.8hPa West 0.9mph /  1.4km/h 8mph /  12.9km/h 46.9% 0.00in /  0mm 54 W/m2
15:49 90.5 °F /  32.5 °C 66.6 °F /  19.2 °C 29.91in /  1012.8hPa West 2.8mph /  4.5km/h 9mph /  14.5km/h 45.6% 0.00in /  0mm 56 W/m2
15:54 90.6 °F /  32.6 °C 66.8 °F /  19.3 °C 29.92in /  1013.1hPa WSW 1.1mph /  1.8km/h 9mph /  14.5km/h 45.8% 0.00in /  0mm 77 W/m2
15:59 90.6 °F /  32.6 °C 66.8 °F /  19.3 °C 29.91in /  1012.8hPa WSW 0.3mph /  0.5km/h 9mph /  14.5km/h 45.6% 0.00in /  0mm 60 W/m2
16:04 90.9 °F /  32.7 °C 67.3 °F /  19.6 °C 29.91in /  1012.8hPa WSW 1.5mph /  2.4km/h 3mph /  4.8km/h 46% 0.00in /  0mm 49 W/m2
16:09 91 °F /  32.8 °C 66.8 °F /  19.3 °C 29.91in /  1012.8hPa WNW 1.1mph /  1.8km/h 6mph /  9.7km/h 45.1% 0.00in /  0mm 62 W/m2
16:14 91 °F /  32.8 °C 66.8 °F /  19.3 °C 29.91in /  1012.8hPa West 0.2mph /  0.3km/h 6mph /  9.7km/h 45.2% 0.00in /  0mm 69 W/m2
16:19 90.5 °F /  32.5 °C 66.4 °F /  19.1 °C 29.91in /  1012.8hPa West 0.6mph /  1km/h 6mph /  9.7km/h 45.2% 0.00in /  0mm 47 W/m2
16:24 90.2 °F /  32.3 °C 66.2 °F /  19 °C 29.91in /  1012.8hPa West 0.9mph /  1.4km/h 6mph /  9.7km/h 45.3% 0.00in /  0mm 44 W/m2
16:29 90 °F /  32.2 °C 66.9 °F /  19.4 °C 29.91in /  1012.8hPa West 0.4mph /  0.6km/h 6mph /  9.7km/h 46.7% 0.00in /  0mm 42 W/m2
16:34 89.8 °F /  32.1 °C 66.4 °F /  19.1 °C 29.91in /  1012.8hPa WSW 0.7mph /  1.1km/h 6mph /  9.7km/h 46.1% 0.00in /  0mm 42 W/m2
16:39 89.7 °F /  32.1 °C 66 °F /  18.9 °C 29.91in /  1012.8hPa Calm   4mph /  6.4km/h 45.8% 0.00in /  0mm 40 W/m2
16:44 89.5 °F /  31.9 °C 66.2 °F /  19 °C 29.90in /  1012.4hPa WSW 1.6mph /  2.6km/h 7mph /  11.3km/h 46.3% 0.00in /  0mm 39 W/m2
16:49 89.2 °F /  31.8 °C 66.3 °F /  19.1 °C 29.90in /  1012.4hPa SSW 0.9mph /  1.4km/h 7mph /  11.3km/h 46.9% 0.00in /  0mm 39 W/m2
16:54 89 °F /  31.7 °C 67.1 °F /  19.5 °C 29.91in /  1012.8hPa WNW 0.7mph /  1.1km/h 7mph /  11.3km/h 48.5% 0.00in /  0mm 39 W/m2
16:59 89 °F /  31.7 °C 66.7 °F /  19.3 °C 29.91in /  1012.8hPa WNW 0.3mph /  0.5km/h 7mph /  11.3km/h 47.9% 0.00in /  0mm 39 W/m2
17:02 89 °F /  31.7 °C 66.2 °F /  19 °C 29.91in /  1012.8hPa Calm   7mph /  11.3km/h 47% 0.00in /  0mm 37 W/m2
17:30 88.8 °F /  31.6 °C 66.6 °F /  19.2 °C 29.90in /  1012.4hPa Calm   10mph /  16.1km/h 48% 0.00in /  0mm 36 W/m2
18:00 88.6 °F /  31.4 °C 65.8 °F /  18.8 °C 29.89in /  1012.1hPa Calm   4mph /  6.4km/h 47% 0.00in /  0mm 33 W/m2
18:30 88.3 °F /  31.3 °C 66.1 °F /  18.9 °C 29.90in /  1012.4hPa Calm   5mph /  8km/h 48% 0.00in /  0mm 31 W/m2
19:00 87.5 °F /  30.8 °C 65.4 °F /  18.6 °C 29.90in /  1012.4hPa Calm   5mph /  8km/h 48% 0.00in /  0mm 26 W/m2
19:30 86.4 °F /  30.2 °C 66.2 °F /  19 °C 29.91in /  1012.8hPa Calm   3mph /  4.8km/h 51% 0.00in /  0mm 20 W/m2
20:04 84.5 °F /  29.2 °C 66.6 °F /  19.2 °C 29.91in /  1012.8hPa Calm     55% 0.00in /  0mm 0 W/m2
20:09 84.4 °F /  29.1 °C 66.6 °F /  19.2 °C 29.91in /  1012.8hPa Calm     55.3% 0.00in /  0mm 0 W/m2
20:14 84.2 °F /  29 °C 66.9 °F /  19.4 °C 29.91in /  1012.8hPa Calm     56% 0.00in /  0mm 0 W/m2
20:19 84.1 °F /  28.9 °C 66.7 °F /  19.3 °C 29.92in /  1013.1hPa Calm   1mph /  1.6km/h 56% 0.00in /  0mm 0 W/m2
20:24 83.9 °F /  28.8 °C 67 °F /  19.4 °C 29.92in /  1013.1hPa Calm   1mph /  1.6km/h 56.9% 0.00in /  0mm 0 W/m2
20:29 83.6 °F /  28.7 °C 66.8 °F /  19.3 °C 29.92in /  1013.1hPa Calm   1mph /  1.6km/h 57% 0.00in /  0mm 0 W/m2
20:34 83.4 °F /  28.6 °C 66.6 °F /  19.2 °C 29.92in /  1013.1hPa Calm   1mph /  1.6km/h 57.2% 0.00in /  0mm 0 W/m2
20:39 83.1 °F /  28.4 °C 66.7 °F /  19.3 °C 29.93in /  1013.4hPa Calm     57.9% 0.00in /  0mm 0 W/m2
20:44 82.9 °F /  28.3 °C 66.6 °F /  19.2 °C 29.93in /  1013.4hPa Calm     58% 0.00in /  0mm 0 W/m2
20:49 82.6 °F /  28.1 °C 66.6 °F /  19.2 °C 29.93in /  1013.4hPa Calm     58.5% 0.00in /  0mm 0 W/m2
20:54 82.3 °F /  27.9 °C 66.6 °F /  19.2 °C 29.93in /  1013.4hPa Calm     59% 0.00in /  0mm 0 W/m2
20:59 82.1 °F /  27.8 °C 66.4 °F /  19.1 °C 29.94in /  1013.8hPa Calm     59% 0.00in /  0mm 0 W/m2
21:04 81.9 °F /  27.7 °C 66.6 °F /  19.2 °C 29.94in /  1013.8hPa Calm     59.9% 0.00in /  0mm 0 W/m2
21:09 81.7 °F /  27.6 °C 66.5 °F /  19.2 °C 29.95in /  1014.1hPa Calm     60% 0.00in /  0mm 0 W/m2
21:14 81.5 °F /  27.5 °C 66.2 °F /  19 °C 29.95in /  1014.1hPa Calm   1mph /  1.6km/h 60% 0.00in /  0mm 0 W/m2
21:19 81.2 °F /  27.3 °C 66.1 °F /  18.9 °C 29.95in /  1014.1hPa WSW 0.1mph /  0.2km/h 2mph /  3.2km/h 60.1% 0.00in /  0mm 0 W/m2
21:24 81 °F /  27.2 °C 66.3 °F /  19.1 °C 29.96in /  1014.4hPa Calm   2mph /  3.2km/h 61% 0.00in /  0mm 0 W/m2
21:29 80.8 °F /  27.1 °C 66.2 °F /  19 °C 29.96in /  1014.4hPa Calm   2mph /  3.2km/h 61.3% 0.00in /  0mm 0 W/m2
21:34 80.6 °F /  27 °C 66.4 °F /  19.1 °C 29.97in /  1014.8hPa Calm   2mph /  3.2km/h 62% 0.00in /  0mm 0 W/m2
21:39 80.3 °F /  26.8 °C 66.6 °F /  19.2 °C 29.97in /  1014.8hPa Calm     62.9% 0.00in /  0mm 0 W/m2
21:44 80.1 °F /  26.7 °C 66.7 °F /  19.3 °C 29.97in /  1014.8hPa Calm   1mph /  1.6km/h 63.7% 0.00in /  0mm 0 W/m2
21:49 79.9 °F /  26.6 °C 67 °F /  19.4 °C 29.97in /  1014.8hPa Calm   1mph /  1.6km/h 64.8% 0.00in /  0mm 0 W/m2
21:54 79.7 °F /  26.5 °C 67.2 °F /  19.6 °C 29.96in /  1014.4hPa Calm   1mph /  1.6km/h 65.8% 0.00in /  0mm 0 W/m2
21:59 79.4 °F /  26.3 °C 67.3 °F /  19.6 °C 29.97in /  1014.8hPa Calm   1mph /  1.6km/h 66.4% 0.00in /  0mm 0 W/m2
22:04 79.2 °F /  26.2 °C 67.4 °F /  19.7 °C 29.97in /  1014.8hPa Calm   1mph /  1.6km/h 67.1% 0.00in /  0mm 0 W/m2
22:09 79 °F /  26.1 °C 67.7 °F /  19.8 °C 29.97in /  1014.8hPa Calm     68.2% 0.00in /  0mm 0 W/m2
22:14 78.8 °F /  26 °C 67.8 °F /  19.9 °C 29.97in /  1014.8hPa Calm     69% 0.00in /  0mm 0 W/m2
22:19 78.6 °F /  25.9 °C 68 °F /  20 °C 29.97in /  1014.8hPa Calm     70% 0.00in /  0mm 0 W/m2
22:24 78.5 °F /  25.8 °C 68.3 °F /  20.2 °C 29.97in /  1014.8hPa Calm     71% 0.00in /  0mm 0 W/m2
22:29 78.3 °F /  25.7 °C 68.1 °F /  20.1 °C 29.98in /  1015.1hPa Calm     71% 0.00in /  0mm 0 W/m2
22:34 78.1 °F /  25.6 °C 68.3 °F /  20.2 °C 29.98in /  1015.1hPa Calm   2mph /  3.2km/h 72% 0.00in /  0mm 0 W/m2
22:39 77.9 °F /  25.5 °C 68.3 °F /  20.2 °C 29.98in /  1015.1hPa Calm   2mph /  3.2km/h 72.2% 0.00in /  0mm 0 W/m2
22:44 77.7 °F /  25.4 °C 68.4 °F /  20.2 °C 29.98in /  1015.1hPa Calm   2mph /  3.2km/h 73% 0.00in /  0mm 0 W/m2
22:49 77.5 °F /  25.3 °C 68.2 °F /  20.1 °C 29.98in /  1015.1hPa Calm   2mph /  3.2km/h 73% 0.00in /  0mm 0 W/m2
22:54 77.3 °F /  25.2 °C 68.3 °F /  20.2 °C 29.98in /  1015.1hPa Calm   2mph /  3.2km/h 73.8% 0.00in /  0mm 0 W/m2
22:59 77.1 °F /  25.1 °C 68.2 °F /  20.1 °C 29.99in /  1015.5hPa Calm   2mph /  3.2km/h 74% 0.00in /  0mm 0 W/m2
23:04 76.9 °F /  24.9 °C 68.3 °F /  20.2 °C 29.99in /  1015.5hPa Calm   2mph /  3.2km/h 74.8% 0.00in /  0mm 0 W/m2
23:09 76.7 °F /  24.8 °C 68.2 °F /  20.1 °C 29.99in /  1015.5hPa Calm     75% 0.00in /  0mm 0 W/m2
23:14 76.6 °F /  24.8 °C 68.2 °F /  20.1 °C 29.99in /  1015.5hPa Calm     75.3% 0.00in /  0mm 0 W/m2
23:19 76.4 °F /  24.7 °C 68.3 °F /  20.2 °C 29.98in /  1015.1hPa Calm     76% 0.00in /  0mm 0 W/m2
23:24 76.4 °F /  24.7 °C 68.3 °F /  20.2 °C 29.98in /  1015.1hPa Calm     76% 0.00in /  0mm 0 W/m2
23:29 76.3 °F /  24.6 °C 68.2 °F /  20.1 °C 29.98in /  1015.1hPa Calm     76% 0.00in /  0mm 0 W/m2
23:34 76.2 °F /  24.6 °C 68.1 °F /  20.1 °C 29.98in /  1015.1hPa Calm     76% 0.00in /  0mm 0 W/m2
23:39 76.1 °F /  24.5 °C 68 °F /  20 °C 29.98in /  1015.1hPa Calm     76% 0.00in /  0mm 0 W/m2
23:44 76 °F /  24.4 °C 67.9 °F /  19.9 °C 29.99in /  1015.5hPa Calm     76% 0.00in /  0mm 0 W/m2
23:49 75.8 °F /  24.3 °C 68 °F /  20 °C 29.99in /  1015.5hPa Calm     76.7% 0.00in /  0mm 0 W/m2
23:54 75.7 °F /  24.3 °C 68 °F /  20 °C 29.98in /  1015.1hPa Calm     77% 0.00in /  0mm 0 W/m2
23:59 75.5 °F /  24.2 °C 68.2 °F /  20.1 °C 29.98in /  1015.1hPa Calm     77.9% 0.00in /  0mm 0 W/m2
Hartford County Weather
Compliments of Weather Underground - 4 mb